createdAt,value
2023-02-24T05:21:48.508Z,31.88
2023-02-24T05:36:50.863Z,30.80
2023-02-24T05:52:00.936Z,32.83
2023-02-24T06:07:04.681Z,28.50
2023-02-24T06:22:10.989Z,25.77
2023-02-24T06:37:15.980Z,21.67
2023-02-24T06:52:19.385Z,20.75
2023-02-24T07:07:23.510Z,19.60
2023-02-24T07:22:25.583Z,19.52
2023-02-24T07:37:31.855Z,21.70
2023-02-24T07:52:33.974Z,20.55
2023-02-24T08:07:36.195Z,21.92
2023-02-24T08:22:38.713Z,19.80
2023-02-24T08:37:47.481Z,20.83
2023-02-24T08:52:49.687Z,18.55
2023-02-24T09:07:54.860Z,17.42
2023-02-24T09:23:03.873Z,14.82
2023-02-24T09:38:06.346Z,15.45
2023-02-24T09:53:17.472Z,13.18
2023-02-24T10:08:27.423Z,13.32
2023-02-24T10:23:56.738Z,11.63
2023-02-24T10:39:10.951Z,10.45
2023-02-24T10:54:33.520Z,7.90
2023-02-24T11:09:44.132Z,6.38
2023-02-24T11:24:47.405Z,7.40
2023-02-24T11:39:58.473Z,7.35
2023-02-24T11:55:04.061Z,6.82
2023-02-24T12:10:17.223Z,8.05
2023-02-24T12:25:26.593Z,9.27
2023-02-24T12:55:45.001Z,7.32
2023-02-24T13:11:15.492Z,5.78
2023-02-24T13:26:26.285Z,5.60
2023-02-24T13:41:28.298Z,7.60
2023-02-24T13:56:48.581Z,5.40
2023-02-24T14:12:17.665Z,5.63
2023-02-24T14:27:26.283Z,4.57
2023-02-24T14:42:29.396Z,5.10
2023-02-24T14:57:38.213Z,6.05
2023-02-24T15:12:51.221Z,9.30
2023-02-24T15:27:58.527Z,7.00
2023-02-24T15:43:12.189Z,6.80
2023-02-24T15:58:17.545Z,14.88
2023-02-24T16:13:23.080Z,5.93
2023-02-24T16:28:25.591Z,7.15
2023-02-24T16:43:30.535Z,8.95
2023-02-24T16:58:32.551Z,9.43
2023-02-24T17:13:34.567Z,7.13
2023-02-24T17:28:36.615Z,8.02
2023-02-24T17:43:38.701Z,9.98
2023-02-24T17:58:41.772Z,10.18
2023-02-24T18:13:44.314Z,9.70
2023-02-24T18:28:46.619Z,11.02
2023-02-24T18:43:50.387Z,12.43
2023-02-24T18:58:55.437Z,14.57
2023-02-24T19:13:59.259Z,13.10
2023-02-24T19:29:01.497Z,9.27
2023-02-24T19:44:03.971Z,6.82
2023-02-24T19:59:08.180Z,7.95
2023-02-24T20:14:12.838Z,8.15
2023-02-24T20:29:17.148Z,8.75
2023-02-24T20:44:19.352Z,10.35
2023-02-24T20:59:22.277Z,11.23
2023-02-24T21:14:24.319Z,10.40
2023-02-24T21:29:26.339Z,12.23
2023-02-24T21:44:28.575Z,12.80
2023-02-24T21:59:30.734Z,11.80
2023-02-24T22:14:32.892Z,9.88
2023-02-24T22:29:34.850Z,9.48
2023-02-24T22:44:37.026Z,9.45
2023-02-24T22:59:39.115Z,8.18
2023-02-24T23:14:41.145Z,5.28
2023-02-24T23:29:43.208Z,4.97
2023-02-24T23:44:45.629Z,4.97
2023-02-24T23:59:48.028Z,4.57
